sensor_id;sensor_type;location;lat;lon;timestamp;temperature;humidity
10051;DHT22;5065;46.942;7.432;2023-04-30T00:01:48;16.00;99.90
10051;DHT22;5065;46.942;7.432;2023-04-30T00:04:16;15.90;99.90
10051;DHT22;5065;46.942;7.432;2023-04-30T00:06:43;15.90;99.90
10051;DHT22;5065;46.942;7.432;2023-04-30T00:09:10;15.80;99.90
10051;DHT22;5065;46.942;7.432;2023-04-30T00:11:37;15.80;99.90
10051;DHT22;5065;46.942;7.432;2023-04-30T00:14:05;15.80;99.90
10051;DHT22;5065;46.942;7.432;2023-04-30T00:16:32;15.70;99.90
10051;DHT22;5065;46.942;7.432;2023-04-30T00:18:59;15.70;99.90
10051;DHT22;5065;46.942;7.432;2023-04-30T00:21:28;15.60;99.90
10051;DHT22;5065;46.942;7.432;2023-04-30T00:23:56;15.70;99.90
10051;DHT22;5065;46.942;7.432;2023-04-30T00:26:25;15.60;99.90
10051;DHT22;5065;46.942;7.432;2023-04-30T00:28:52;15.60;99.90
10051;DHT22;5065;46.942;7.432;2023-04-30T00:31:19;15.40;99.90
10051;DHT22;5065;46.942;7.432;2023-04-30T00:33:46;15.40;99.90
10051;DHT22;5065;46.942;7.432;2023-04-30T00:36:13;15.30;99.90
10051;DHT22;5065;46.942;7.432;2023-04-30T00:38:42;15.30;99.90
10051;DHT22;5065;46.942;7.432;2023-04-30T00:41:09;15.30;99.90
10051;DHT22;5065;46.942;7.432;2023-04-30T00:43:36;15.30;99.90
10051;DHT22;5065;46.942;7.432;2023-04-30T00:46:03;15.30;99.90
10051;DHT22;5065;46.942;7.432;2023-04-30T00:48:31;15.30;99.90
10051;DHT22;5065;46.942;7.432;2023-04-30T00:50:58;15.30;99.90
10051;DHT22;5065;46.942;7.432;2023-04-30T00:53:27;15.30;99.90
10051;DHT22;5065;46.942;7.432;2023-04-30T00:55:55;15.20;99.90
10051;DHT22;5065;46.942;7.432;2023-04-30T00:58:22;15.20;99.90
10051;DHT22;5065;46.942;7.432;2023-04-30T01:00:49;15.10;99.90
10051;DHT22;5065;46.942;7.432;2023-04-30T01:03:16;15.10;99.90
10051;DHT22;5065;46.942;7.432;2023-04-30T01:05:43;15.10;99.90
10051;DHT22;5065;46.942;7.432;2023-04-30T01:08:10;15.10;99.90
10051;DHT22;5065;46.942;7.432;2023-04-30T01:10:39;15.00;99.90
10051;DHT22;5065;46.942;7.432;2023-04-30T01:13:10;15.00;99.90
10051;DHT22;5065;46.942;7.432;2023-04-30T01:15:39;15.00;99.90
10051;DHT22;5065;46.942;7.432;2023-04-30T01:18:09;15.00;99.90
10051;DHT22;5065;46.942;7.432;2023-04-30T01:20:38;15.00;99.90
10051;DHT22;5065;46.942;7.432;2023-04-30T01:23:10;14.90;99.90
10051;DHT22;5065;46.942;7.432;2023-04-30T01:25:43;14.90;99.90
10051;DHT22;5065;46.942;7.432;2023-04-30T01:28:19;14.90;99.90
10051;DHT22;5065;46.942;7.432;2023-04-30T01:30:46;14.90;99.90
10051;DHT22;5065;46.942;7.432;2023-04-30T01:33:13;14.90;99.90
10051;DHT22;5065;46.942;7.432;2023-04-30T01:35:55;14.80;99.90
10051;DHT22;5065;46.942;7.432;2023-04-30T01:38:27;14.80;99.90
10051;DHT22;5065;46.942;7.432;2023-04-30T01:40:58;14.80;99.90
10051;DHT22;5065;46.942;7.432;2023-04-30T01:43:29;14.80;99.90
10051;DHT22;5065;46.942;7.432;2023-04-30T01:46:01;14.80;99.90
10051;DHT22;5065;46.942;7.432;2023-04-30T01:48:32;14.80;99.90
10051;DHT22;5065;46.942;7.432;2023-04-30T01:51:04;14.80;99.90
10051;DHT22;5065;46.942;7.432;2023-04-30T01:53:37;14.80;99.90
10051;DHT22;5065;46.942;7.432;2023-04-30T01:56:05;14.80;99.90
10051;DHT22;5065;46.942;7.432;2023-04-30T01:58:35;14.80;99.90
10051;DHT22;5065;46.942;7.432;2023-04-30T02:01:03;14.80;99.90
10051;DHT22;5065;46.942;7.432;2023-04-30T02:03:31;14.70;99.90
10051;DHT22;5065;46.942;7.432;2023-04-30T02:05:58;14.70;99.90
10051;DHT22;5065;46.942;7.432;2023-04-30T02:08:25;14.70;99.90
10051;DHT22;5065;46.942;7.432;2023-04-30T02:10:52;14.70;99.90
10051;DHT22;5065;46.942;7.432;2023-04-30T02:13:20;14.70;99.90
10051;DHT22;5065;46.942;7.432;2023-04-30T02:15:48;14.60;99.90
10051;DHT22;5065;46.942;7.432;2023-04-30T02:18:15;14.60;99.90
10051;DHT22;5065;46.942;7.432;2023-04-30T02:20:41;14.40;99.90
10051;DHT22;5065;46.942;7.432;2023-04-30T02:23:08;14.40;99.90
10051;DHT22;5065;46.942;7.432;2023-04-30T02:25:35;14.40;99.90
10051;DHT22;5065;46.942;7.432;2023-04-30T02:28:03;14.50;99.90
10051;DHT22;5065;46.942;7.432;2023-04-30T02:30:30;14.50;99.90
10051;DHT22;5065;46.942;7.432;2023-04-30T02:32:58;14.40;99.90
10051;DHT22;5065;46.942;7.432;2023-04-30T02:35:25;14.40;99.90
10051;DHT22;5065;46.942;7.432;2023-04-30T02:37:52;14.40;99.90
10051;DHT22;5065;46.942;7.432;2023-04-30T02:40:19;14.40;99.90
10051;DHT22;5065;46.942;7.432;2023-04-30T02:42:45;14.30;99.90
10051;DHT22;5065;46.942;7.432;2023-04-30T02:45:12;14.30;99.90
10051;DHT22;5065;46.942;7.432;2023-04-30T02:47:39;14.30;99.90
10051;DHT22;5065;46.942;7.432;2023-04-30T02:50:08;14.30;99.90
10051;DHT22;5065;46.942;7.432;2023-04-30T02:52:35;14.30;99.90
10051;DHT22;5065;46.942;7.432;2023-04-30T02:55:01;14.30;99.90
10051;DHT22;5065;46.942;7.432;2023-04-30T02:57:29;14.30;99.90
10051;DHT22;5065;46.942;7.432;2023-04-30T02:59:55;14.20;99.90
10051;DHT22;5065;46.942;7.432;2023-04-30T03:02:22;14.20;99.90
10051;DHT22;5065;46.942;7.432;2023-04-30T03:04:49;14.20;99.90
10051;DHT22;5065;46.942;7.432;2023-04-30T03:07:17;14.20;99.90
10051;DHT22;5065;46.942;7.432;2023-04-30T03:09:44;14.20;99.90
10051;DHT22;5065;46.942;7.432;2023-04-30T03:12:11;14.20;99.90
10051;DHT22;5065;46.942;7.432;2023-04-30T03:14:39;14.20;99.90
10051;DHT22;5065;46.942;7.432;2023-04-30T03:17:05;14.20;99.90
10051;DHT22;5065;46.942;7.432;2023-04-30T03:19:32;14.20;99.90
10051;DHT22;5065;46.942;7.432;2023-04-30T03:21:59;14.10;99.90
10051;DHT22;5065;46.942;7.432;2023-04-30T03:24:28;14.10;99.90
10051;DHT22;5065;46.942;7.432;2023-04-30T03:26:55;14.10;99.90
10051;DHT22;5065;46.942;7.432;2023-04-30T03:29:22;14.10;99.90
10051;DHT22;5065;46.942;7.432;2023-04-30T03:31:49;14.10;99.90
10051;DHT22;5065;46.942;7.432;2023-04-30T03:34:15;14.10;99.90
10051;DHT22;5065;46.942;7.432;2023-04-30T03:36:42;14.10;99.90
10051;DHT22;5065;46.942;7.432;2023-04-30T03:39:09;14.10;99.90
10051;DHT22;5065;46.942;7.432;2023-04-30T03:41:38;14.00;99.90
10051;DHT22;5065;46.942;7.432;2023-04-30T03:44:05;14.10;99.90
10051;DHT22;5065;46.942;7.432;2023-04-30T03:46:39;14.00;99.90
10051;DHT22;5065;46.942;7.432;2023-04-30T03:49:06;14.10;99.90
10051;DHT22;5065;46.942;7.432;2023-04-30T03:51:33;14.10;99.90
10051;DHT22;5065;46.942;7.432;2023-04-30T03:54:04;14.10;99.90
10051;DHT22;5065;46.942;7.432;2023-04-30T03:56:31;14.00;99.90
10051;DHT22;5065;46.942;7.432;2023-04-30T03:58:59;14.00;99.90
10051;DHT22;5065;46.942;7.432;2023-04-30T04:01:27;14.00;99.90
10051;DHT22;5065;46.942;7.432;2023-04-30T04:03:55;14.00;99.90
10051;DHT22;5065;46.942;7.432;2023-04-30T04:06:22;14.00;99.90
10051;DHT22;5065;46.942;7.432;2023-04-30T04:08:48;14.00;99.90
10051;DHT22;5065;46.942;7.432;2023-04-30T04:11:15;14.00;99.90
10051;DHT22;5065;46.942;7.432;2023-04-30T04:13:42;13.90;99.90
10051;DHT22;5065;46.942;7.432;2023-04-30T04:16:10;14.00;99.90
10051;DHT22;5065;46.942;7.432;2023-04-30T04:18:37;13.90;99.90
10051;DHT22;5065;46.942;7.432;2023-04-30T04:21:06;14.00;99.90
10051;DHT22;5065;46.942;7.432;2023-04-30T04:23:33;14.00;99.90
10051;DHT22;5065;46.942;7.432;2023-04-30T04:26:00;14.00;99.90
10051;DHT22;5065;46.942;7.432;2023-04-30T04:28:27;14.00;99.90
10051;DHT22;5065;46.942;7.432;2023-04-30T04:30:54;14.00;99.90
10051;DHT22;5065;46.942;7.432;2023-04-30T04:33:22;13.90;99.90
10051;DHT22;5065;46.942;7.432;2023-04-30T04:35:49;14.00;99.90
10051;DHT22;5065;46.942;7.432;2023-04-30T04:38:16;13.90;99.90
10051;DHT22;5065;46.942;7.432;2023-04-30T04:40:49;13.90;99.90
10051;DHT22;5065;46.942;7.432;2023-04-30T04:43:16;14.00;99.90
10051;DHT22;5065;46.942;7.432;2023-04-30T04:45:43;13.90;99.90
10051;DHT22;5065;46.942;7.432;2023-04-30T04:48:10;13.90;99.90
10051;DHT22;5065;46.942;7.432;2023-04-30T04:50:38;13.90;99.90
10051;DHT22;5065;46.942;7.432;2023-04-30T04:53:05;13.90;99.90
10051;DHT22;5065;46.942;7.432;2023-04-30T04:55:32;13.90;99.90
10051;DHT22;5065;46.942;7.432;2023-04-30T04:57:59;14.00;99.90
10051;DHT22;5065;46.942;7.432;2023-04-30T05:00:26;13.90;99.90
10051;DHT22;5065;46.942;7.432;2023-04-30T05:02:52;13.90;99.90
10051;DHT22;5065;46.942;7.432;2023-04-30T05:05:19;14.00;99.90
10051;DHT22;5065;46.942;7.432;2023-04-30T05:07:47;13.90;99.90
10051;DHT22;5065;46.942;7.432;2023-04-30T05:10:16;14.00;99.90
10051;DHT22;5065;46.942;7.432;2023-04-30T05:12:43;14.00;99.90
10051;DHT22;5065;46.942;7.432;2023-04-30T05:15:10;14.00;99.90
10051;DHT22;5065;46.942;7.432;2023-04-30T05:17:37;14.00;99.90
10051;DHT22;5065;46.942;7.432;2023-04-30T05:20:04;14.00;99.90
10051;DHT22;5065;46.942;7.432;2023-04-30T05:22:32;14.00;99.90
10051;DHT22;5065;46.942;7.432;2023-04-30T05:25:00;14.10;99.90
10051;DHT22;5065;46.942;7.432;2023-04-30T05:27:27;14.10;99.90
10051;DHT22;5065;46.942;7.432;2023-04-30T05:29:54;14.10;99.90
10051;DHT22;5065;46.942;7.432;2023-04-30T05:32:21;14.10;99.90
10051;DHT22;5065;46.942;7.432;2023-04-30T05:34:47;14.20;99.90
10051;DHT22;5065;46.942;7.432;2023-04-30T05:37:14;14.20;99.90
10051;DHT22;5065;46.942;7.432;2023-04-30T05:39:43;14.20;99.90
10051;DHT22;5065;46.942;7.432;2023-04-30T05:42:11;14.20;99.90
10051;DHT22;5065;46.942;7.432;2023-04-30T05:44:39;14.30;99.90
10051;DHT22;5065;46.942;7.432;2023-04-30T05:47:05;14.30;99.90
10051;DHT22;5065;46.942;7.432;2023-04-30T05:49:32;14.30;99.90
10051;DHT22;5065;46.942;7.432;2023-04-30T05:51:59;14.30;99.90
10051;DHT22;5065;46.942;7.432;2023-04-30T05:54:27;14.30;99.90
10051;DHT22;5065;46.942;7.432;2023-04-30T05:56:55;14.40;99.90
10051;DHT22;5065;46.942;7.432;2023-04-30T05:59:23;14.30;99.90
10051;DHT22;5065;46.942;7.432;2023-04-30T06:01:50;14.40;99.90
10051;DHT22;5065;46.942;7.432;2023-04-30T06:04:17;14.40;99.90
10051;DHT22;5065;46.942;7.432;2023-04-30T06:06:44;14.40;99.90
10051;DHT22;5065;46.942;7.432;2023-04-30T06:09:11;14.40;99.90
10051;DHT22;5065;46.942;7.432;2023-04-30T06:11:38;14.40;99.90
10051;DHT22;5065;46.942;7.432;2023-04-30T06:14:04;14.50;99.90
10051;DHT22;5065;46.942;7.432;2023-04-30T06:16:35;14.60;99.90
10051;DHT22;5065;46.942;7.432;2023-04-30T06:19:02;14.70;99.90
10051;DHT22;5065;46.942;7.432;2023-04-30T06:21:29;14.70;99.90
10051;DHT22;5065;46.942;7.432;2023-04-30T06:23:56;14.80;99.90
10051;DHT22;5065;46.942;7.432;2023-04-30T06:26:23;14.90;99.90
10051;DHT22;5065;46.942;7.432;2023-04-30T06:28:50;14.90;99.90
10051;DHT22;5065;46.942;7.432;2023-04-30T06:31:17;15.00;99.90
10051;DHT22;5065;46.942;7.432;2023-04-30T06:33:45;15.10;99.90
10051;DHT22;5065;46.942;7.432;2023-04-30T06:36:12;15.30;99.90
10051;DHT22;5065;46.942;7.432;2023-04-30T06:38:39;15.30;99.90
10051;DHT22;5065;46.942;7.432;2023-04-30T06:41:06;15.40;99.90
10051;DHT22;5065;46.942;7.432;2023-04-30T06:43:32;15.40;99.90
10051;DHT22;5065;46.942;7.432;2023-04-30T06:45:59;15.50;99.90
10051;DHT22;5065;46.942;7.432;2023-04-30T06:48:26;15.60;99.90
10051;DHT22;5065;46.942;7.432;2023-04-30T06:50:54;15.60;99.90
10051;DHT22;5065;46.942;7.432;2023-04-30T06:53:21;15.60;99.90
10051;DHT22;5065;46.942;7.432;2023-04-30T06:55:48;15.60;99.90
10051;DHT22;5065;46.942;7.432;2023-04-30T06:58:15;15.70;99.90
10051;DHT22;5065;46.942;7.432;2023-04-30T07:00:43;15.90;99.90
10051;DHT22;5065;46.942;7.432;2023-04-30T07:03:10;16.20;99.90
10051;DHT22;5065;46.942;7.432;2023-04-30T07:05:37;16.30;99.90
10051;DHT22;5065;46.942;7.432;2023-04-30T07:08:06;16.50;99.90
10051;DHT22;5065;46.942;7.432;2023-04-30T07:10:33;16.70;99.90
10051;DHT22;5065;46.942;7.432;2023-04-30T07:12:59;16.90;99.90
10051;DHT22;5065;46.942;7.432;2023-04-30T07:15:26;17.10;99.90
10051;DHT22;5065;46.942;7.432;2023-04-30T07:17:55;17.30;99.90
10051;DHT22;5065;46.942;7.432;2023-04-30T07:20:22;17.50;99.90
10051;DHT22;5065;46.942;7.432;2023-04-30T07:22:49;17.70;99.90
10051;DHT22;5065;46.942;7.432;2023-04-30T07:25:17;17.70;99.90
10051;DHT22;5065;46.942;7.432;2023-04-30T07:27:44;17.70;99.90
10051;DHT22;5065;46.942;7.432;2023-04-30T07:30:11;17.60;99.90
10051;DHT22;5065;46.942;7.432;2023-04-30T07:32:38;17.50;99.90
10051;DHT22;5065;46.942;7.432;2023-04-30T07:35:05;17.50;99.90
10051;DHT22;5065;46.942;7.432;2023-04-30T07:37:32;17.50;99.90
10051;DHT22;5065;46.942;7.432;2023-04-30T07:39:59;17.60;99.90
10051;DHT22;5065;46.942;7.432;2023-04-30T07:42:27;17.70;99.90
10051;DHT22;5065;46.942;7.432;2023-04-30T07:44:54;17.70;99.90
10051;DHT22;5065;46.942;7.432;2023-04-30T07:47:21;17.70;99.90
10051;DHT22;5065;46.942;7.432;2023-04-30T07:49:49;17.80;99.90
10051;DHT22;5065;46.942;7.432;2023-04-30T07:52:16;18.00;99.90
10051;DHT22;5065;46.942;7.432;2023-04-30T07:54:43;18.20;99.90
10051;DHT22;5065;46.942;7.432;2023-04-30T07:57:10;18.40;99.90
10051;DHT22;5065;46.942;7.432;2023-04-30T07:59:38;18.50;99.90
10051;DHT22;5065;46.942;7.432;2023-04-30T08:02:05;18.50;99.90
10051;DHT22;5065;46.942;7.432;2023-04-30T08:04:32;18.70;99.90
10051;DHT22;5065;46.942;7.432;2023-04-30T08:06:59;18.90;99.90
10051;DHT22;5065;46.942;7.432;2023-04-30T08:09:26;19.20;99.90
10051;DHT22;5065;46.942;7.432;2023-04-30T08:11:53;19.40;99.90
10051;DHT22;5065;46.942;7.432;2023-04-30T08:14:20;19.60;99.90
10051;DHT22;5065;46.942;7.432;2023-04-30T08:16:51;19.80;99.90
10051;DHT22;5065;46.942;7.432;2023-04-30T08:19:18;19.90;99.90
10051;DHT22;5065;46.942;7.432;2023-04-30T08:21:45;19.90;99.90
10051;DHT22;5065;46.942;7.432;2023-04-30T08:24:14;19.80;99.90
10051;DHT22;5065;46.942;7.432;2023-04-30T08:26:41;19.70;99.90
10051;DHT22;5065;46.942;7.432;2023-04-30T08:29:08;19.70;99.90
10051;DHT22;5065;46.942;7.432;2023-04-30T08:31:35;19.60;99.90
10051;DHT22;5065;46.942;7.432;2023-04-30T08:34:03;19.60;99.90
10051;DHT22;5065;46.942;7.432;2023-04-30T08:36:30;19.50;99.90
10051;DHT22;5065;46.942;7.432;2023-04-30T08:38:57;19.40;99.90
10051;DHT22;5065;46.942;7.432;2023-04-30T08:41:26;19.40;99.90
10051;DHT22;5065;46.942;7.432;2023-04-30T08:43:55;19.50;99.90
10051;DHT22;5065;46.942;7.432;2023-04-30T08:46:24;19.40;99.90
10051;DHT22;5065;46.942;7.432;2023-04-30T08:48:53;19.30;99.90
10051;DHT22;5065;46.942;7.432;2023-04-30T08:51:21;19.30;99.90
10051;DHT22;5065;46.942;7.432;2023-04-30T08:53:49;19.30;99.90
10051;DHT22;5065;46.942;7.432;2023-04-30T08:56:16;19.30;99.90
10051;DHT22;5065;46.942;7.432;2023-04-30T08:58:43;19.30;99.90
10051;DHT22;5065;46.942;7.432;2023-04-30T09:01:10;19.10;99.90
10051;DHT22;5065;46.942;7.432;2023-04-30T09:03:37;19.10;99.90
10051;DHT22;5065;46.942;7.432;2023-04-30T09:06:04;19.00;99.90
10051;DHT22;5065;46.942;7.432;2023-04-30T09:08:42;19.00;99.90
10051;DHT22;5065;46.942;7.432;2023-04-30T09:11:19;19.00;99.90
10051;DHT22;5065;46.942;7.432;2023-04-30T09:13:46;18.90;99.90
10051;DHT22;5065;46.942;7.432;2023-04-30T09:16:17;19.00;99.90
10051;DHT22;5065;46.942;7.432;2023-04-30T09:18:43;19.00;99.90
10051;DHT22;5065;46.942;7.432;2023-04-30T09:21:10;19.00;99.90
10051;DHT22;5065;46.942;7.432;2023-04-30T09:23:47;19.00;99.90
10051;DHT22;5065;46.942;7.432;2023-04-30T09:26:29;19.00;99.90
10051;DHT22;5065;46.942;7.432;2023-04-30T09:28:57;19.00;99.90
10051;DHT22;5065;46.942;7.432;2023-04-30T09:31:24;19.00;99.90
10051;DHT22;5065;46.942;7.432;2023-04-30T09:33:51;18.80;99.90
10051;DHT22;5065;46.942;7.432;2023-04-30T09:36:18;18.60;99.90
10051;DHT22;5065;46.942;7.432;2023-04-30T09:38:47;18.50;99.90
10051;DHT22;5065;46.942;7.432;2023-04-30T09:41:20;18.50;99.90
10051;DHT22;5065;46.942;7.432;2023-04-30T09:43:47;18.60;99.90
10051;DHT22;5065;46.942;7.432;2023-04-30T09:46:14;18.50;99.90
10051;DHT22;5065;46.942;7.432;2023-04-30T09:48:44;18.40;99.90
10051;DHT22;5065;46.942;7.432;2023-04-30T09:51:10;18.40;99.90
10051;DHT22;5065;46.942;7.432;2023-04-30T09:53:38;18.30;99.90
10051;DHT22;5065;46.942;7.432;2023-04-30T09:56:08;18.30;99.90
10051;DHT22;5065;46.942;7.432;2023-04-30T09:58:37;18.20;99.90
10051;DHT22;5065;46.942;7.432;2023-04-30T10:01:04;18.10;99.90
10051;DHT22;5065;46.942;7.432;2023-04-30T10:03:32;18.10;99.90
10051;DHT22;5065;46.942;7.432;2023-04-30T10:05:59;18.30;99.90
10051;DHT22;5065;46.942;7.432;2023-04-30T10:08:26;18.40;99.90
10051;DHT22;5065;46.942;7.432;2023-04-30T10:10:56;18.50;99.90
10051;DHT22;5065;46.942;7.432;2023-04-30T10:13:26;18.50;99.90
10051;DHT22;5065;46.942;7.432;2023-04-30T10:15:56;18.40;99.90
10051;DHT22;5065;46.942;7.432;2023-04-30T10:18:26;18.40;99.90
10051;DHT22;5065;46.942;7.432;2023-04-30T10:20:54;18.20;99.90
10051;DHT22;5065;46.942;7.432;2023-04-30T10:23:22;18.00;99.90
10051;DHT22;5065;46.942;7.432;2023-04-30T10:25:49;18.10;99.90
10051;DHT22;5065;46.942;7.432;2023-04-30T10:28:17;18.30;99.90
10051;DHT22;5065;46.942;7.432;2023-04-30T10:30:46;18.40;99.90
10051;DHT22;5065;46.942;7.432;2023-04-30T10:33:16;18.50;99.90
10051;DHT22;5065;46.942;7.432;2023-04-30T10:35:45;18.50;99.90
10051;DHT22;5065;46.942;7.432;2023-04-30T10:38:14;18.60;99.90
10051;DHT22;5065;46.942;7.432;2023-04-30T10:40:44;18.60;99.90
10051;DHT22;5065;46.942;7.432;2023-04-30T10:43:11;18.70;99.90
10051;DHT22;5065;46.942;7.432;2023-04-30T10:45:42;18.80;99.90
10051;DHT22;5065;46.942;7.432;2023-04-30T10:48:14;18.80;99.90
10051;DHT22;5065;46.942;7.432;2023-04-30T10:50:50;18.80;99.90
10051;DHT22;5065;46.942;7.432;2023-04-30T10:53:18;18.80;99.90
10051;DHT22;5065;46.942;7.432;2023-04-30T10:55:47;18.90;99.90
10051;DHT22;5065;46.942;7.432;2023-04-30T10:58:25;19.00;99.90
10051;DHT22;5065;46.942;7.432;2023-04-30T11:01:04;19.00;99.90
10051;DHT22;5065;46.942;7.432;2023-04-30T11:03:35;19.00;99.90
10051;DHT22;5065;46.942;7.432;2023-04-30T11:06:11;19.00;99.90
10051;DHT22;5065;46.942;7.432;2023-04-30T11:08:41;18.90;99.90
10051;DHT22;5065;46.942;7.432;2023-04-30T11:11:09;18.90;99.90
10051;DHT22;5065;46.942;7.432;2023-04-30T11:13:40;18.80;99.90
10051;DHT22;5065;46.942;7.432;2023-04-30T11:16:07;18.80;99.90
10051;DHT22;5065;46.942;7.432;2023-04-30T11:18:43;18.80;99.90
10051;DHT22;5065;46.942;7.432;2023-04-30T11:21:10;18.70;99.90
10051;DHT22;5065;46.942;7.432;2023-04-30T11:23:40;18.50;99.90
10051;DHT22;5065;46.942;7.432;2023-04-30T11:26:09;18.60;99.90
10051;DHT22;5065;46.942;7.432;2023-04-30T11:28:36;18.60;99.90
10051;DHT22;5065;46.942;7.432;2023-04-30T11:31:04;18.60;99.90
10051;DHT22;5065;46.942;7.432;2023-04-30T11:33:32;18.60;99.90
10051;DHT22;5065;46.942;7.432;2023-04-30T11:36:01;18.60;99.90
10051;DHT22;5065;46.942;7.432;2023-04-30T11:38:33;18.60;99.90
10051;DHT22;5065;46.942;7.432;2023-04-30T11:41:00;18.60;99.90
10051;DHT22;5065;46.942;7.432;2023-04-30T11:43:28;18.60;99.90
10051;DHT22;5065;46.942;7.432;2023-04-30T11:46:05;18.50;99.90
10051;DHT22;5065;46.942;7.432;2023-04-30T11:48:33;18.50;99.90
10051;DHT22;5065;46.942;7.432;2023-04-30T11:51:13;18.40;99.90
10051;DHT22;5065;46.942;7.432;2023-04-30T11:53:41;18.50;99.90
10051;DHT22;5065;46.942;7.432;2023-04-30T11:56:08;18.40;99.90
10051;DHT22;5065;46.942;7.432;2023-04-30T11:58:36;18.40;99.90
10051;DHT22;5065;46.942;7.432;2023-04-30T12:01:05;18.30;99.90
10051;DHT22;5065;46.942;7.432;2023-04-30T12:03:40;18.30;99.90
10051;DHT22;5065;46.942;7.432;2023-04-30T12:06:10;18.20;99.90
10051;DHT22;5065;46.942;7.432;2023-04-30T12:08:40;18.20;99.90
10051;DHT22;5065;46.942;7.432;2023-04-30T12:11:19;18.20;99.90
10051;DHT22;5065;46.942;7.432;2023-04-30T12:13:50;18.20;99.90
10051;DHT22;5065;46.942;7.432;2023-04-30T12:16:17;18.10;99.90
10051;DHT22;5065;46.942;7.432;2023-04-30T12:18:45;18.10;99.90
10051;DHT22;5065;46.942;7.432;2023-04-30T12:21:13;18.00;99.90
10051;DHT22;5065;46.942;7.432;2023-04-30T12:23:41;17.90;99.90
10051;DHT22;5065;46.942;7.432;2023-04-30T12:26:09;17.80;99.90
10051;DHT22;5065;46.942;7.432;2023-04-30T12:28:37;17.80;99.90
10051;DHT22;5065;46.942;7.432;2023-04-30T12:31:04;17.90;99.90
10051;DHT22;5065;46.942;7.432;2023-04-30T12:33:31;17.90;99.90
10051;DHT22;5065;46.942;7.432;2023-04-30T12:35:58;18.00;99.90
10051;DHT22;5065;46.942;7.432;2023-04-30T12:38:27;18.00;99.90
10051;DHT22;5065;46.942;7.432;2023-04-30T12:40:54;18.00;99.90
10051;DHT22;5065;46.942;7.432;2023-04-30T12:43:22;18.00;99.90
10051;DHT22;5065;46.942;7.432;2023-04-30T12:45:50;18.00;99.90
10051;DHT22;5065;46.942;7.432;2023-04-30T12:48:18;17.80;99.90
10051;DHT22;5065;46.942;7.432;2023-04-30T12:50:52;17.90;99.90
10051;DHT22;5065;46.942;7.432;2023-04-30T12:53:20;17.90;99.90
10051;DHT22;5065;46.942;7.432;2023-04-30T12:56:07;17.90;99.90
10051;DHT22;5065;46.942;7.432;2023-04-30T12:58:35;17.90;99.90
10051;DHT22;5065;46.942;7.432;2023-04-30T13:01:03;17.90;99.90
10051;DHT22;5065;46.942;7.432;2023-04-30T13:03:30;17.80;99.90
10051;DHT22;5065;46.942;7.432;2023-04-30T13:05:59;17.80;99.90
10051;DHT22;5065;46.942;7.432;2023-04-30T13:08:29;17.80;99.90
10051;DHT22;5065;46.942;7.432;2023-04-30T13:10:56;17.80;99.90
10051;DHT22;5065;46.942;7.432;2023-04-30T13:13:25;17.70;99.90
10051;DHT22;5065;46.942;7.432;2023-04-30T13:15:52;17.70;99.90
10051;DHT22;5065;46.942;7.432;2023-04-30T13:18:19;17.70;99.90
10051;DHT22;5065;46.942;7.432;2023-04-30T13:20:46;17.70;99.90
10051;DHT22;5065;46.942;7.432;2023-04-30T13:23:14;17.70;99.90
10051;DHT22;5065;46.942;7.432;2023-04-30T13:25:41;17.70;99.90
10051;DHT22;5065;46.942;7.432;2023-04-30T13:28:08;17.70;99.90
10051;DHT22;5065;46.942;7.432;2023-04-30T13:30:38;17.70;99.90
10051;DHT22;5065;46.942;7.432;2023-04-30T13:33:05;17.60;99.90
10051;DHT22;5065;46.942;7.432;2023-04-30T13:35:32;17.60;99.90
10051;DHT22;5065;46.942;7.432;2023-04-30T13:38:00;17.60;99.90
10051;DHT22;5065;46.942;7.432;2023-04-30T13:40:27;17.60;99.90
10051;DHT22;5065;46.942;7.432;2023-04-30T13:42:54;17.60;99.90
10051;DHT22;5065;46.942;7.432;2023-04-30T13:45:38;17.50;99.90
10051;DHT22;5065;46.942;7.432;2023-04-30T13:48:06;17.60;99.90
10051;DHT22;5065;46.942;7.432;2023-04-30T13:50:33;17.60;99.90
10051;DHT22;5065;46.942;7.432;2023-04-30T13:53:01;17.70;99.90
10051;DHT22;5065;46.942;7.432;2023-04-30T13:55:28;17.70;99.90
10051;DHT22;5065;46.942;7.432;2023-04-30T13:57:56;17.80;99.90
10051;DHT22;5065;46.942;7.432;2023-04-30T14:00:25;17.80;99.90
10051;DHT22;5065;46.942;7.432;2023-04-30T14:02:54;17.80;99.90
10051;DHT22;5065;46.942;7.432;2023-04-30T14:05:21;17.80;99.90
10051;DHT22;5065;46.942;7.432;2023-04-30T14:07:48;17.80;99.90
10051;DHT22;5065;46.942;7.432;2023-04-30T14:10:15;17.80;99.90
10051;DHT22;5065;46.942;7.432;2023-04-30T14:12:44;17.80;99.90
10051;DHT22;5065;46.942;7.432;2023-04-30T14:15:13;17.90;99.90
10051;DHT22;5065;46.942;7.432;2023-04-30T14:17:41;17.90;99.90
10051;DHT22;5065;46.942;7.432;2023-04-30T14:20:16;17.90;99.90
10051;DHT22;5065;46.942;7.432;2023-04-30T14:22:43;17.90;99.90
10051;DHT22;5065;46.942;7.432;2023-04-30T14:25:11;17.90;99.90
10051;DHT22;5065;46.942;7.432;2023-04-30T14:27:39;17.90;99.90
10051;DHT22;5065;46.942;7.432;2023-04-30T14:30:07;17.80;99.90
10051;DHT22;5065;46.942;7.432;2023-04-30T14:32:35;17.90;99.90
10051;DHT22;5065;46.942;7.432;2023-04-30T14:35:02;17.90;99.90
10051;DHT22;5065;46.942;7.432;2023-04-30T14:37:31;17.90;99.90
10051;DHT22;5065;46.942;7.432;2023-04-30T14:40:01;17.90;99.90
10051;DHT22;5065;46.942;7.432;2023-04-30T14:42:29;17.90;99.90
10051;DHT22;5065;46.942;7.432;2023-04-30T14:44:58;17.80;99.90
10051;DHT22;5065;46.942;7.432;2023-04-30T14:47:25;17.80;99.90
10051;DHT22;5065;46.942;7.432;2023-04-30T14:49:52;17.80;99.90
10051;DHT22;5065;46.942;7.432;2023-04-30T14:52:27;17.80;99.90
10051;DHT22;5065;46.942;7.432;2023-04-30T14:54:56;17.80;99.90
10051;DHT22;5065;46.942;7.432;2023-04-30T14:57:23;17.80;99.90
10051;DHT22;5065;46.942;7.432;2023-04-30T14:59:52;17.80;99.90
10051;DHT22;5065;46.942;7.432;2023-04-30T15:02:22;17.80;99.90
10051;DHT22;5065;46.942;7.432;2023-04-30T15:04:49;17.80;99.90
10051;DHT22;5065;46.942;7.432;2023-04-30T15:07:17;17.70;99.90
10051;DHT22;5065;46.942;7.432;2023-04-30T15:09:44;17.60;99.90
10051;DHT22;5065;46.942;7.432;2023-04-30T15:12:13;17.50;99.90
10051;DHT22;5065;46.942;7.432;2023-04-30T15:14:40;17.50;99.90
10051;DHT22;5065;46.942;7.432;2023-04-30T15:17:07;17.60;99.90
10051;DHT22;5065;46.942;7.432;2023-04-30T15:19:35;17.60;99.90
10051;DHT22;5065;46.942;7.432;2023-04-30T15:22:02;17.70;99.90
10051;DHT22;5065;46.942;7.432;2023-04-30T15:24:30;17.70;99.90
10051;DHT22;5065;46.942;7.432;2023-04-30T15:26:57;17.70;99.90
10051;DHT22;5065;46.942;7.432;2023-04-30T15:29:25;17.70;99.90
10051;DHT22;5065;46.942;7.432;2023-04-30T15:31:52;17.70;99.90
10051;DHT22;5065;46.942;7.432;2023-04-30T15:34:21;17.70;99.90
10051;DHT22;5065;46.942;7.432;2023-04-30T15:36:48;17.70;99.90
10051;DHT22;5065;46.942;7.432;2023-04-30T15:39:15;17.60;99.90
10051;DHT22;5065;46.942;7.432;2023-04-30T15:41:43;17.60;99.90
10051;DHT22;5065;46.942;7.432;2023-04-30T15:44:11;17.60;99.90
10051;DHT22;5065;46.942;7.432;2023-04-30T15:46:39;17.60;99.90
10051;DHT22;5065;46.942;7.432;2023-04-30T15:49:07;17.60;99.90
10051;DHT22;5065;46.942;7.432;2023-04-30T15:51:34;17.60;99.90